createdAt,value
2018-09-25T00:01:39.612Z,92.30
2018-09-25T00:04:13.225Z,92.50
2018-09-25T00:06:47.108Z,93.20
2018-09-25T00:09:20.830Z,93.35
2018-09-25T00:11:54.436Z,93.16
2018-09-25T00:14:28.318Z,93.07
2018-09-25T00:17:02.099Z,93.29
2018-09-25T00:19:35.833Z,93.19
2018-09-25T00:22:10.261Z,92.47
2018-09-25T00:24:44.180Z,92.96
2018-09-25T00:27:17.976Z,93.35
2018-09-25T00:29:51.875Z,93.18
2018-09-25T00:32:25.529Z,92.83
2018-09-25T00:34:59.346Z,92.89
2018-09-25T00:37:33.065Z,92.88
2018-09-25T00:40:06.810Z,92.95
2018-09-25T00:42:40.573Z,93.33
2018-09-25T00:45:14.339Z,93.22
2018-09-25T00:47:48.090Z,92.94
2018-09-25T00:50:22.255Z,93.11
2018-09-25T00:52:56.553Z,92.47
2018-09-25T00:55:30.241Z,92.42
2018-09-25T00:58:03.890Z,93.23
2018-09-25T01:00:37.706Z,92.88
2018-09-25T01:03:11.912Z,92.57
2018-09-25T01:05:46.364Z,92.82
2018-09-25T01:08:20.865Z,92.85
2018-09-25T01:10:54.547Z,92.48
2018-09-25T01:13:28.310Z,92.28
2018-09-25T01:16:02.107Z,92.06
2018-09-25T01:18:36.039Z,92.52
2018-09-25T01:21:10.799Z,93.13
2018-09-25T01:23:44.597Z,92.88
2018-09-25T01:26:18.541Z,92.59
2018-09-25T01:28:53.614Z,92.80
2018-09-25T01:31:27.296Z,92.82
2018-09-25T01:34:01.166Z,92.47
2018-09-25T01:36:34.911Z,92.31
2018-09-25T01:39:08.786Z,92.71
2018-09-25T01:41:42.678Z,92.39
2018-09-25T01:44:16.509Z,92.75
2018-09-25T01:46:50.329Z,93.00
2018-09-25T01:49:25.501Z,92.69
2018-09-25T01:51:59.359Z,92.41
2018-09-25T01:54:33.458Z,92.56
2018-09-25T01:57:07.274Z,92.81
2018-09-25T01:59:41.184Z,92.92
2018-09-25T02:02:15.731Z,92.80
2018-09-25T02:04:50.686Z,92.65
2018-09-25T02:07:24.550Z,93.01
2018-09-25T02:09:58.281Z,93.40
2018-09-25T02:12:32.107Z,93.16
2018-09-25T02:15:05.836Z,92.82
2018-09-25T02:17:39.579Z,92.71
2018-09-25T02:20:13.420Z,92.82
2018-09-25T02:22:47.320Z,91.83
2018-09-25T02:25:21.719Z,92.70
2018-09-25T02:27:55.661Z,92.49
2018-09-25T02:30:30.434Z,92.91
2018-09-25T02:33:04.122Z,92.52
2018-09-25T02:35:39.363Z,92.22
2018-09-25T02:38:13.255Z,92.40
2018-09-25T02:40:47.105Z,92.24
2018-09-25T02:43:21.606Z,92.63
2018-09-25T02:45:56.742Z,92.91
2018-09-25T02:48:30.631Z,92.36
2018-09-25T02:51:05.276Z,92.64
2018-09-25T02:53:39.118Z,92.58
2018-09-25T02:56:12.786Z,92.22
2018-09-25T03:05:59.294Z,92.98
2018-09-25T03:08:33.156Z,92.90
2018-09-25T03:11:08.551Z,92.86
2018-09-25T03:13:42.988Z,93.63
2018-09-25T03:16:16.875Z,93.87
2018-09-25T03:18:50.688Z,93.69
2018-09-25T03:21:25.562Z,93.70
2018-09-25T03:23:59.717Z,93.42
2018-09-25T03:26:33.271Z,93.34
2018-09-25T03:29:07.142Z,93.24
2018-09-25T03:31:41.302Z,94.03
2018-09-25T03:34:15.184Z,94.23
2018-09-25T03:36:48.890Z,93.71
2018-09-25T03:39:23.624Z,93.53
2018-09-25T03:41:57.462Z,93.23
2018-09-25T03:44:32.009Z,92.85
2018-09-25T03:47:05.835Z,93.53
2018-09-25T03:49:39.650Z,92.57
2018-09-25T03:52:14.504Z,92.95
2018-09-25T03:54:50.650Z,93.06
2018-09-25T03:57:24.630Z,92.73
2018-09-25T03:59:59.359Z,92.41
2018-09-25T04:02:33.132Z,92.40
2018-09-25T04:05:07.011Z,91.89
2018-09-25T04:07:40.826Z,92.49
2018-09-25T04:10:14.876Z,92.56
2018-09-25T04:12:48.750Z,92.36
2018-09-25T04:15:22.602Z,91.94
2018-09-25T04:17:56.498Z,91.82
2018-09-25T04:20:30.337Z,92.34
2018-09-25T04:23:04.066Z,91.96
2018-09-25T04:25:37.873Z,92.38
2018-09-25T04:28:11.631Z,92.06
2018-09-25T04:30:45.572Z,91.87
2018-09-25T04:33:20.014Z,92.26
2018-09-25T04:35:53.799Z,91.55
2018-09-25T04:38:27.657Z,92.34
2018-09-25T04:41:01.532Z,92.49
2018-09-25T04:43:35.900Z,92.31
2018-09-25T04:46:09.739Z,92.21
2018-09-25T04:48:43.331Z,92.12
2018-09-25T04:51:17.200Z,92.35
2018-09-25T04:53:51.007Z,92.39
2018-09-25T04:56:24.662Z,91.63
2018-09-25T04:58:58.595Z,92.11
2018-09-25T05:01:32.325Z,91.89
2018-09-25T05:04:06.855Z,91.13
2018-09-25T05:06:40.800Z,92.02
2018-09-25T05:09:14.702Z,91.96
2018-09-25T05:11:48.527Z,92.34
2018-09-25T05:14:22.563Z,91.51
2018-09-25T05:16:56.357Z,91.71
2018-09-25T05:19:30.138Z,91.68
2018-09-25T05:22:04.020Z,91.90
2018-09-25T05:24:38.466Z,92.02
2018-09-25T05:27:12.439Z,92.25
2018-09-25T05:29:46.145Z,92.46
2018-09-25T05:32:19.936Z,91.94
2018-09-25T05:34:53.855Z,92.21
2018-09-25T05:37:28.070Z,92.03
2018-09-25T05:40:01.802Z,92.11
2018-09-25T05:42:35.786Z,92.21
2018-09-25T05:45:09.744Z,92.76
2018-09-25T05:47:43.483Z,92.59
2018-09-25T05:50:17.874Z,92.29
2018-09-25T05:52:51.819Z,92.32
2018-09-25T05:55:25.512Z,92.99
2018-09-25T05:57:59.243Z,93.17
2018-09-25T06:00:33.119Z,93.29
2018-09-25T06:03:08.155Z,93.19
2018-09-25T06:05:42.475Z,93.21
2018-09-25T06:08:16.220Z,93.85
2018-09-25T06:10:49.982Z,93.68
2018-09-25T06:13:23.727Z,93.21
2018-09-25T06:15:58.554Z,93.50
2018-09-25T06:18:32.322Z,93.69
2018-09-25T06:21:06.738Z,93.84
2018-09-25T06:23:40.430Z,93.49
2018-09-25T06:26:14.253Z,93.96
2018-09-25T06:28:48.209Z,94.06
2018-09-25T06:31:21.983Z,94.01
2018-09-25T06:33:55.883Z,94.19
2018-09-25T06:36:29.643Z,94.08
2018-09-25T06:39:03.599Z,94.29
2018-09-25T06:41:37.422Z,94.31
2018-09-25T06:44:11.212Z,94.21
2018-09-25T06:46:45.915Z,94.70
2018-09-25T06:49:19.843Z,94.76
2018-09-25T06:51:54.158Z,94.78
2018-09-25T06:54:27.835Z,94.04
2018-09-25T06:57:01.591Z,94.75
2018-09-25T06:59:35.324Z,94.79
2018-09-25T07:02:09.148Z,94.99
2018-09-25T07:04:43.123Z,94.67
2018-09-25T07:07:17.083Z,94.81
2018-09-25T07:09:50.986Z,95.01
2018-09-25T07:12:24.890Z,94.85
2018-09-25T07:14:58.739Z,95.21
2018-09-25T07:17:32.649Z,95.23
2018-09-25T07:20:06.247Z,95.02
2018-09-25T07:22:40.189Z,95.03
2018-09-25T07:25:13.915Z,94.90
2018-09-25T07:27:48.401Z,95.13
2018-09-25T07:30:22.974Z,94.81
2018-09-25T07:32:57.487Z,94.40
2018-09-25T07:35:31.211Z,94.28
2018-09-25T07:38:05.236Z,93.98
2018-09-25T07:40:38.986Z,93.93
2018-09-25T07:43:12.860Z,93.54
2018-09-25T07:45:46.651Z,93.17
2018-09-25T07:48:20.797Z,93.13
2018-09-25T07:50:54.626Z,92.88
2018-09-25T07:53:28.543Z,92.80
2018-09-25T07:56:02.263Z,92.72
2018-09-25T07:58:36.140Z,92.68
2018-09-25T08:01:09.913Z,92.22
2018-09-25T08:03:43.849Z,92.00
2018-09-25T08:06:17.424Z,91.47
2018-09-25T08:08:51.716Z,89.88
2018-09-25T08:11:25.539Z,90.58
2018-09-25T08:13:59.355Z,90.67
2018-09-25T08:16:33.164Z,90.64
2018-09-25T08:19:07.031Z,90.57
2018-09-25T08:21:40.851Z,90.98
2018-09-25T08:24:14.540Z,91.24
2018-09-25T08:26:48.331Z,90.15
2018-09-25T08:29:22.129Z,90.76
2018-09-25T08:31:55.914Z,90.60
2018-09-25T08:34:29.614Z,90.53
2018-09-25T08:37:03.431Z,89.62
2018-09-25T08:39:37.253Z,90.01
2018-09-25T08:42:10.927Z,90.10
2018-09-25T08:44:45.099Z,89.45
2018-09-25T08:47:18.987Z,89.42
2018-09-25T08:49:52.668Z,88.66
2018-09-25T08:52:26.418Z,88.80
2018-09-25T08:55:00.184Z,88.23
2018-09-25T08:57:33.940Z,87.50
2018-09-25T09:00:07.744Z,83.60
2018-09-25T09:02:41.396Z,84.41
2018-09-25T09:05:15.295Z,85.47
2018-09-25T09:07:49.142Z,86.08
2018-09-25T09:10:22.886Z,85.06
2018-09-25T09:12:56.661Z,84.52
2018-09-25T09:15:30.555Z,85.26
2018-09-25T09:18:04.443Z,81.79
2018-09-25T09:20:38.239Z,80.75
2018-09-25T09:23:12.024Z,82.50
2018-09-25T09:25:45.594Z,75.90
2018-09-25T09:28:19.508Z,78.24
2018-09-25T09:30:53.247Z,77.70
2018-09-25T09:33:27.043Z,78.39
2018-09-25T09:36:00.786Z,76.81
2018-09-25T09:38:34.481Z,79.28
2018-09-25T09:41:08.298Z,77.53
2018-09-25T09:43:42.246Z,76.55
2018-09-25T09:46:15.986Z,75.51
2018-09-25T09:48:49.782Z,71.71
2018-09-25T09:51:23.633Z,74.75
2018-09-25T09:53:57.396Z,69.16
2018-09-25T09:56:31.170Z,70.62
2018-09-25T09:59:04.891Z,71.08
2018-09-25T10:03:03.048Z,68.60
2018-09-25T10:05:36.924Z,68.52
2018-09-25T10:08:10.655Z,68.98
2018-09-25T10:10:44.493Z,67.35
2018-09-25T10:13:18.396Z,66.46
2018-09-25T10:15:52.403Z,65.81
2018-09-25T10:18:26.314Z,66.19
2018-09-25T10:21:00.178Z,63.70
2018-09-25T10:23:33.856Z,63.46
2018-09-25T10:26:07.725Z,63.65
2018-09-25T10:28:41.522Z,61.07
2018-09-25T10:31:16.599Z,59.60
2018-09-25T10:33:50.496Z,59.02
2018-09-25T10:36:24.335Z,56.94
2018-09-25T10:38:58.232Z,56.71
2018-09-25T10:41:32.020Z,55.51
2018-09-25T10:44:05.771Z,54.26
2018-09-25T10:46:39.597Z,56.59
2018-09-25T10:49:13.328Z,57.65
2018-09-25T10:51:46.995Z,56.95
2018-09-25T10:54:20.751Z,57.13
2018-09-25T10:56:54.451Z,61.00
2018-09-25T10:59:28.274Z,60.32
2018-09-25T11:02:02.019Z,59.64
2018-09-25T11:04:35.667Z,58.34
2018-09-25T11:07:09.443Z,58.61
2018-09-25T11:09:43.254Z,59.68
2018-09-25T11:12:17.070Z,58.77
2018-09-25T11:14:50.843Z,58.09
2018-09-25T11:17:24.561Z,57.81
2018-09-25T11:19:58.411Z,55.28
2018-09-25T11:22:32.918Z,54.59
2018-09-25T11:25:07.291Z,51.66
2018-09-25T11:27:40.999Z,52.62
2018-09-25T11:30:14.744Z,52.80
2018-09-25T11:32:48.577Z,53.25
2018-09-25T11:35:22.330Z,52.73
2018-09-25T11:37:56.147Z,53.31
2018-09-25T11:40:29.961Z,51.52
2018-09-25T11:43:04.066Z,51.25
2018-09-25T11:45:37.835Z,51.03
2018-09-25T11:48:11.483Z,51.75
2018-09-25T11:50:45.253Z,51.01
2018-09-25T11:53:18.775Z,50.98
2018-09-25T11:55:52.861Z,51.29
2018-09-25T11:58:26.816Z,51.35
2018-09-25T12:01:00.603Z,52.46
2018-09-25T12:03:34.491Z,52.08
2018-09-25T12:06:08.382Z,51.37
2018-09-25T12:08:42.276Z,53.59
2018-09-25T12:11:16.203Z,53.84
2018-09-25T12:13:49.962Z,54.03
2018-09-25T12:16:23.575Z,53.36
2018-09-25T12:18:57.232Z,54.61
2018-09-25T12:21:31.208Z,54.11
2018-09-25T12:24:05.016Z,51.57
2018-09-25T12:26:38.794Z,50.55
2018-09-25T12:29:12.744Z,50.47
2018-09-25T12:31:46.615Z,50.13
2018-09-25T12:34:20.480Z,49.19
2018-09-25T12:36:54.283Z,50.62
2018-09-25T12:39:28.001Z,50.49
2018-09-25T12:42:01.620Z,50.21
2018-09-25T12:44:35.624Z,49.83
2018-09-25T12:47:09.669Z,46.65
2018-09-25T12:49:43.516Z,50.09
2018-09-25T12:52:17.345Z,48.46
2018-09-25T12:54:51.167Z,49.63
2018-09-25T12:57:24.895Z,50.12
2018-09-25T12:59:58.665Z,48.96
2018-09-25T13:02:32.616Z,49.64
2018-09-25T13:05:06.463Z,49.82
2018-09-25T13:07:40.406Z,49.66
2018-09-25T13:10:14.214Z,49.05
2018-09-25T13:12:48.011Z,49.87
2018-09-25T13:15:21.721Z,49.02
2018-09-25T13:17:56.290Z,51.34
2018-09-25T13:20:30.060Z,53.64
2018-09-25T13:23:04.013Z,51.26
2018-09-25T13:25:37.780Z,51.81
2018-09-25T13:28:11.615Z,53.18
2018-09-25T13:30:45.235Z,52.31
2018-09-25T13:33:19.171Z,52.05
2018-09-25T13:35:52.763Z,52.01
2018-09-25T13:38:26.435Z,52.45
2018-09-25T13:41:00.523Z,50.66
2018-09-25T13:43:34.440Z,49.84
2018-09-25T13:46:08.222Z,48.68
2018-09-25T13:48:42.017Z,50.52
2018-09-25T13:51:16.027Z,48.37
2018-09-25T13:53:49.735Z,50.55
2018-09-25T13:56:23.579Z,49.34
2018-09-25T13:58:58.660Z,50.00
2018-09-25T14:01:32.414Z,50.14
2018-09-25T14:04:06.190Z,50.80
2018-09-25T14:06:39.966Z,49.99
2018-09-25T14:09:15.229Z,50.15
2018-09-25T14:11:49.067Z,49.15
2018-09-25T14:14:22.802Z,49.79
2018-09-25T14:16:56.563Z,50.37
2018-09-25T14:19:30.710Z,49.48
2018-09-25T14:22:04.649Z,49.58
2018-09-25T14:24:38.321Z,50.65
2018-09-25T14:27:12.175Z,50.08
2018-09-25T14:29:45.980Z,51.54
2018-09-25T14:32:19.826Z,50.51
2018-09-25T14:34:54.300Z,51.13
2018-09-25T14:37:28.297Z,51.52
2018-09-25T14:40:01.951Z,51.89
2018-09-25T14:42:35.698Z,52.11
2018-09-25T14:45:09.607Z,52.58
2018-09-25T14:47:43.604Z,51.87
2018-09-25T14:50:17.530Z,53.53
2018-09-25T14:52:53.590Z,52.91
2018-09-25T14:55:28.002Z,52.04
2018-09-25T14:58:02.359Z,53.27
2018-09-25T15:00:36.072Z,53.93
2018-09-25T15:03:09.914Z,53.47
2018-09-25T15:05:43.848Z,53.07
2018-09-25T15:08:17.607Z,54.74
2018-09-25T15:10:52.020Z,55.15
2018-09-25T15:13:25.932Z,55.95
2018-09-25T15:16:00.444Z,54.22
2018-09-25T15:18:35.795Z,55.26
2018-09-25T15:21:10.992Z,54.28
2018-09-25T15:23:45.578Z,55.60
2018-09-25T15:26:19.397Z,55.62
2018-09-25T15:28:53.000Z,56.97
2018-09-25T15:31:33.228Z,57.14
2018-09-25T15:34:06.854Z,56.27
2018-09-25T15:36:40.617Z,56.17
2018-09-25T15:39:14.995Z,56.06
2018-09-25T15:41:48.858Z,55.83
2018-09-25T15:44:22.557Z,54.50
2018-09-25T15:46:56.519Z,56.44
2018-09-25T15:49:30.452Z,56.49
2018-09-25T15:52:04.219Z,56.03
2018-09-25T15:54:38.241Z,56.17
2018-09-25T15:57:12.018Z,56.78
2018-09-25T15:59:45.913Z,57.39
2018-09-25T16:02:20.895Z,57.34
2018-09-25T16:04:54.706Z,57.67
2018-09-25T16:07:28.662Z,58.27
2018-09-25T16:10:02.603Z,59.03
2018-09-25T16:12:37.730Z,58.06
2018-09-25T16:15:11.499Z,58.64
2018-09-25T16:17:45.200Z,57.85
2018-09-25T16:20:19.058Z,56.59
2018-09-25T16:22:52.791Z,55.26
2018-09-25T16:25:26.679Z,57.52
2018-09-25T16:28:00.546Z,55.75
2018-09-25T16:30:35.139Z,55.79
2018-09-25T16:33:08.958Z,56.13
2018-09-25T16:35:43.522Z,55.81
2018-09-25T16:38:17.287Z,56.83
2018-09-25T16:40:51.182Z,58.10
2018-09-25T16:43:25.070Z,59.16
2018-09-25T16:45:58.805Z,60.53
2018-09-25T16:48:32.516Z,61.68
2018-09-25T16:51:06.220Z,62.64
2018-09-25T16:53:40.045Z,63.10
2018-09-25T16:56:14.126Z,63.89
2018-09-25T16:58:47.816Z,65.78
2018-09-25T17:01:21.567Z,64.97
2018-09-25T17:03:55.408Z,66.53
2018-09-25T17:06:29.281Z,67.86
2018-09-25T17:09:03.127Z,67.84
2018-09-25T17:11:36.988Z,69.50
2018-09-25T17:14:11.195Z,70.47
2018-09-25T17:16:45.002Z,71.16
2018-09-25T17:19:18.811Z,72.62
2018-09-25T17:21:52.786Z,72.49
2018-09-25T17:24:26.682Z,72.97
2018-09-25T17:27:00.393Z,73.59
2018-09-25T17:29:34.004Z,73.53
2018-09-25T17:32:07.735Z,74.32
2018-09-25T17:34:41.597Z,75.32
2018-09-25T17:37:15.482Z,76.46
2018-09-25T17:39:49.278Z,76.41
2018-09-25T17:42:23.063Z,76.95
2018-09-25T17:44:58.729Z,77.58
2018-09-25T17:47:32.721Z,77.85
2018-09-25T17:50:06.410Z,78.75
2018-09-25T17:52:40.221Z,78.19
2018-09-25T17:55:13.967Z,78.75
2018-09-25T17:57:47.757Z,79.19
2018-09-25T18:00:21.593Z,79.12
2018-09-25T18:02:55.530Z,78.90
2018-09-25T18:05:29.395Z,80.02
2018-09-25T18:08:03.238Z,80.81
2018-09-25T18:10:36.801Z,81.30
2018-09-25T18:13:10.663Z,81.52
2018-09-25T18:15:44.487Z,80.92
2018-09-25T18:18:18.287Z,80.93
2018-09-25T18:20:52.000Z,81.03
2018-09-25T18:23:26.520Z,81.62
2018-09-25T18:26:00.614Z,81.20
2018-09-25T18:28:35.066Z,80.94
2018-09-25T18:31:08.881Z,81.41
2018-09-25T18:33:43.509Z,81.21
2018-09-25T18:36:17.194Z,81.65
2018-09-25T18:38:50.930Z,81.89
2018-09-25T18:41:25.398Z,82.07
2018-09-25T18:43:59.078Z,82.20
2018-09-25T18:46:32.851Z,82.27
2018-09-25T18:49:06.597Z,82.33
2018-09-25T18:51:40.595Z,82.38
2018-09-25T18:54:14.487Z,82.80
2018-09-25T18:56:48.283Z,82.48
2018-09-25T18:59:22.095Z,82.62
2018-09-25T19:01:55.843Z,83.11
2018-09-25T19:04:29.495Z,83.04
2018-09-25T19:07:03.333Z,82.74
2018-09-25T19:09:37.107Z,83.05
2018-09-25T19:12:11.863Z,83.33
2018-09-25T19:14:45.494Z,84.02
2018-09-25T19:17:19.397Z,84.19
2018-09-25T19:19:53.133Z,84.14
2018-09-25T19:22:27.585Z,83.30
2018-09-25T19:25:02.271Z,82.46
2018-09-25T19:27:36.094Z,82.63
2018-09-25T19:30:10.187Z,81.91
2018-09-25T19:32:44.190Z,82.74
2018-09-25T19:35:18.130Z,82.79
2018-09-25T19:37:51.889Z,82.45
2018-09-25T19:40:25.672Z,82.98
2018-09-25T19:42:59.576Z,82.79
2018-09-25T19:45:33.342Z,83.37
2018-09-25T19:48:07.451Z,83.04
2018-09-25T19:50:41.295Z,83.07
2018-09-25T19:53:15.682Z,82.61
2018-09-25T19:55:49.526Z,83.34
2018-09-25T19:58:23.397Z,82.92
2018-09-25T20:00:57.177Z,82.98
2018-09-25T20:03:31.086Z,83.77
2018-09-25T20:06:05.000Z,83.91
2018-09-25T20:08:38.717Z,83.92
2018-09-25T20:11:13.583Z,83.47
2018-09-25T20:13:47.407Z,83.27
2018-09-25T20:16:21.334Z,83.29
2018-09-25T20:18:55.153Z,83.26
2018-09-25T20:21:28.948Z,83.16
2018-09-25T20:24:02.910Z,83.90
2018-09-25T20:26:38.050Z,84.08
2018-09-25T20:29:12.190Z,84.13
2018-09-25T20:31:46.213Z,83.86
2018-09-25T20:34:20.062Z,84.09
2018-09-25T20:36:53.939Z,84.37
2018-09-25T20:39:27.857Z,84.74
2018-09-25T20:42:01.664Z,84.73
2018-09-25T20:44:35.426Z,83.78
2018-09-25T20:47:09.397Z,84.15
2018-09-25T20:49:44.227Z,83.77
2018-09-25T20:52:18.192Z,84.69
2018-09-25T20:54:52.702Z,84.07
2018-09-25T20:57:26.475Z,83.59
2018-09-25T21:00:00.395Z,83.22
2018-09-25T21:02:34.354Z,83.31
2018-09-25T21:05:08.245Z,82.88
2018-09-25T21:07:42.062Z,83.38
2018-09-25T21:10:16.083Z,83.01
2018-09-25T21:12:50.001Z,82.46
2018-09-25T21:15:24.206Z,81.95
2018-09-25T21:17:57.913Z,81.52
2018-09-25T21:20:31.599Z,82.15
2018-09-25T21:23:05.389Z,81.74
2018-09-25T21:25:39.165Z,81.91
2018-09-25T21:28:13.073Z,81.64
2018-09-25T21:30:47.551Z,82.67
2018-09-25T21:33:21.499Z,82.64
2018-09-25T21:35:56.372Z,83.10
2018-09-25T21:38:30.016Z,82.76
2018-09-25T21:41:03.902Z,83.69
2018-09-25T21:43:37.508Z,83.45
2018-09-25T21:46:11.403Z,83.70
2018-09-25T21:48:45.675Z,83.06
2018-09-25T21:51:19.600Z,82.29
2018-09-25T21:53:53.190Z,81.97
2018-09-25T21:56:28.300Z,82.63
2018-09-25T21:59:02.161Z,82.53
2018-09-25T22:01:36.029Z,82.42
2018-09-25T22:04:09.792Z,83.15
2018-09-25T22:06:43.627Z,83.52
2018-09-25T22:09:17.441Z,83.16
2018-09-25T22:11:51.275Z,83.59
2018-09-25T22:14:26.307Z,83.94
2018-09-25T22:17:00.840Z,84.27
2018-09-25T22:19:35.364Z,84.33
2018-09-25T22:22:09.271Z,83.85
2018-09-25T22:24:43.119Z,84.31
2018-09-25T22:27:17.129Z,84.21
2018-09-25T22:29:50.833Z,84.84
2018-09-25T22:32:24.563Z,84.71
2018-09-25T22:34:58.275Z,84.56
2018-09-25T22:37:32.037Z,84.72
2018-09-25T22:40:05.854Z,84.44
2018-09-25T22:42:39.835Z,84.66
2018-09-25T22:45:13.630Z,83.59
2018-09-25T22:47:47.466Z,84.01
2018-09-25T22:50:21.235Z,84.21
2018-09-25T22:52:55.654Z,84.61
2018-09-25T22:55:29.609Z,85.11
2018-09-25T22:58:03.453Z,85.19
2018-09-25T23:00:38.022Z,85.29
2018-09-25T23:03:11.929Z,85.21
2018-09-25T23:05:45.828Z,85.89
2018-09-25T23:08:19.750Z,84.85
2018-09-25T23:10:53.648Z,85.59
2018-09-25T23:13:27.945Z,86.04
2018-09-25T23:16:03.365Z,86.32
2018-09-25T23:18:37.092Z,85.98
2018-09-25T23:21:10.900Z,85.60
2018-09-25T23:23:44.702Z,85.98
2018-09-25T23:26:18.682Z,85.20
2018-09-25T23:28:52.561Z,85.81
2018-09-25T23:31:27.267Z,85.28
2018-09-25T23:34:01.116Z,85.23
2018-09-25T23:36:35.413Z,84.51
2018-09-25T23:39:09.154Z,85.07
2018-09-25T23:41:42.190Z,85.51
2018-09-25T23:44:16.010Z,86.14
2018-09-25T23:46:49.802Z,86.87
2018-09-25T23:49:25.552Z,86.94
2018-09-25T23:52:03.714Z,87.24
2018-09-25T23:54:54.076Z,86.83
2018-09-25T23:58:27.776Z,86.55
